createdAt,value
2018-11-23T00:02:57.448Z,1.48
2018-11-23T00:05:44.771Z,1.46
2018-11-23T00:08:13.078Z,1.53
2018-11-23T00:11:00.393Z,1.54
2018-11-23T00:13:28.659Z,1.56
2018-11-23T00:16:15.998Z,1.50
2018-11-23T00:19:03.354Z,1.48
2018-11-23T00:21:31.589Z,1.51
2018-11-23T00:24:18.939Z,1.53
2018-11-23T00:27:06.276Z,1.58
2018-11-23T00:29:34.609Z,1.57
2018-11-23T00:32:21.942Z,1.53
2018-11-23T00:35:09.328Z,1.50
2018-11-23T00:37:37.566Z,1.45
2018-11-23T00:40:26.707Z,1.45
2018-11-23T00:43:14.068Z,1.43
2018-11-23T00:48:29.779Z,1.42
2018-11-23T00:51:17.112Z,1.35
2018-11-23T00:54:04.484Z,1.34
2018-11-23T00:56:32.726Z,1.34
2018-11-23T00:59:20.055Z,1.39
2018-11-23T01:02:07.377Z,1.39
2018-11-23T01:04:36.640Z,1.41
2018-11-23T01:07:05.330Z,1.43
2018-11-23T01:09:33.574Z,1.43
2018-11-23T01:12:20.905Z,1.45
2018-11-23T01:17:36.422Z,1.41
2018-11-23T01:20:05.248Z,1.41
2018-11-23T01:22:33.457Z,1.33
2018-11-23T01:25:20.802Z,1.31
2018-11-23T01:27:50.301Z,1.31
2018-11-23T01:30:38.428Z,1.32
2018-11-23T01:33:06.671Z,1.34
2018-11-23T01:35:54.001Z,1.30
2018-11-23T01:38:41.345Z,1.34
2018-11-23T01:43:56.141Z,1.41
2018-11-23T01:46:43.480Z,1.35
2018-11-23T01:49:30.818Z,1.36
2018-11-23T01:51:59.079Z,1.32
2018-11-23T01:54:46.416Z,1.28
2018-11-23T01:57:33.748Z,1.32
2018-11-23T02:02:50.149Z,1.35
2018-11-23T02:05:37.487Z,1.34
2018-11-23T02:08:25.659Z,1.30
2018-11-23T02:13:40.439Z,1.34
2018-11-23T02:16:27.766Z,1.33
2018-11-23T02:18:55.984Z,1.29
2018-11-23T02:24:11.639Z,1.32
2018-11-23T02:26:58.968Z,1.32
2018-11-23T02:29:27.211Z,1.32
2018-11-23T02:32:14.535Z,1.34
2018-11-23T02:35:01.831Z,1.26
2018-11-23T02:40:18.658Z,1.29
2018-11-23T02:43:05.961Z,1.37
2018-11-23T02:45:53.304Z,1.37
2018-11-23T02:51:13.945Z,1.28
2018-11-23T02:54:01.259Z,1.32
2018-11-23T02:56:54.829Z,1.26
2018-11-23T03:02:15.870Z,1.33
2018-11-23T03:05:03.762Z,1.33
2018-11-23T03:07:51.108Z,1.31
2018-11-23T03:13:12.222Z,1.32
2018-11-23T03:15:59.559Z,1.35
2018-11-23T03:18:46.873Z,1.37
2018-11-23T03:24:02.196Z,1.37
2018-11-23T03:26:49.523Z,1.41
2018-11-23T03:29:36.848Z,1.42
2018-11-23T03:34:52.516Z,1.43
2018-11-23T03:37:39.874Z,1.43
2018-11-23T03:43:01.405Z,1.45
2018-11-23T03:45:48.718Z,1.42
2018-11-23T03:48:36.058Z,1.44
2018-11-23T03:51:04.545Z,1.45
2018-11-23T03:53:32.778Z,1.47
2018-11-23T03:56:20.075Z,1.44
2018-11-23T03:59:07.425Z,1.46
2018-11-23T04:01:35.689Z,1.52
2018-11-23T04:04:03.907Z,1.51
2018-11-23T04:06:51.260Z,1.53
2018-11-23T04:09:19.493Z,1.51
2018-11-23T04:12:06.848Z,1.56
2018-11-23T04:14:35.074Z,1.53
2018-11-23T04:17:03.282Z,1.51
2018-11-23T04:19:50.614Z,1.52
2018-11-23T04:22:37.965Z,1.50
2018-11-23T04:27:59.032Z,1.55
2018-11-23T04:30:46.356Z,1.59
2018-11-23T04:33:14.615Z,1.60
2018-11-23T04:35:42.833Z,1.53
2018-11-23T04:38:11.078Z,1.58
2018-11-23T04:40:39.301Z,1.57
2018-11-23T04:43:26.618Z,1.54
2018-11-23T04:45:54.853Z,1.49
2018-11-23T04:48:23.117Z,1.49
2018-11-23T04:50:58.889Z,1.50
2018-11-23T04:53:46.221Z,1.45
2018-11-23T04:59:07.676Z,1.47
2018-11-23T05:01:54.998Z,1.51
2018-11-23T05:04:43.456Z,1.50
2018-11-23T05:10:05.647Z,1.51
2018-11-23T05:12:52.976Z,1.54
2018-11-23T05:15:21.221Z,1.51
2018-11-23T05:17:49.429Z,1.51
2018-11-23T05:20:17.879Z,1.52
2018-11-23T05:22:46.315Z,1.54
2018-11-23T05:25:15.949Z,1.55
2018-11-23T05:28:03.284Z,1.51
2018-11-23T05:30:50.641Z,1.53
2018-11-23T05:36:11.797Z,1.54
2018-11-23T05:38:59.105Z,1.56
2018-11-23T05:41:47.371Z,1.53
2018-11-23T05:47:02.060Z,1.56
2018-11-23T05:49:49.407Z,1.61
2018-11-23T05:52:17.643Z,1.61
2018-11-23T05:55:04.981Z,1.66
2018-11-23T06:00:27.050Z,1.61
2018-11-23T06:03:14.373Z,1.59
2018-11-23T06:06:01.738Z,1.60
2018-11-23T06:08:29.988Z,1.64
2018-11-23T06:10:58.201Z,1.67
2018-11-23T06:13:26.432Z,1.69
2018-11-23T06:15:54.675Z,1.69
2018-11-23T06:18:22.923Z,1.64
2018-11-23T06:20:51.171Z,1.60
2018-11-23T06:23:19.376Z,1.59
2018-11-23T06:26:09.299Z,1.64
2018-11-23T06:28:37.534Z,1.66
2018-11-23T06:31:05.792Z,1.65
2018-11-23T06:33:38.863Z,1.65
2018-11-23T06:36:07.212Z,1.62
2018-11-23T06:38:35.481Z,1.67
2018-11-23T06:41:22.818Z,1.70
2018-11-23T06:43:51.056Z,1.72
2018-11-23T06:46:19.265Z,1.70
2018-11-23T06:49:06.601Z,1.70
2018-11-23T06:51:34.855Z,1.66
2018-11-23T06:54:22.168Z,1.63
2018-11-23T07:02:23.579Z,1.72
2018-11-23T07:04:51.793Z,1.66
2018-11-23T07:07:20.050Z,1.71
2018-11-23T07:10:07.376Z,1.75
2018-11-23T07:12:54.742Z,1.78
2018-11-23T07:18:16.516Z,1.73
2018-11-23T07:21:03.838Z,1.72
2018-11-23T07:23:51.191Z,1.71
2018-11-23T07:29:12.161Z,1.78
2018-11-23T07:31:59.456Z,1.76
2018-11-23T07:34:46.808Z,1.82
2018-11-23T07:40:48.080Z,1.73
2018-11-23T07:43:35.461Z,1.77
2018-11-23T07:48:56.411Z,1.82
2018-11-23T07:51:43.721Z,1.84
2018-11-23T07:54:31.085Z,1.81
2018-11-23T07:56:59.323Z,1.88
2018-11-23T07:59:27.797Z,1.90
2018-11-23T08:01:56.010Z,1.91
2018-11-23T08:04:24.319Z,1.90
2018-11-23T08:06:52.546Z,1.94
2018-11-23T08:09:39.887Z,1.94
2018-11-23T08:12:27.216Z,1.97
2018-11-23T08:14:55.489Z,2.01
2018-11-23T08:17:23.717Z,2.03
2018-11-23T08:20:11.061Z,2.05
2018-11-23T08:22:58.433Z,2.07
2018-11-23T08:28:13.877Z,2.04
2018-11-23T08:30:42.111Z,2.01
2018-11-23T08:33:29.455Z,2.06
2018-11-23T08:36:16.801Z,2.09
2018-11-23T08:38:45.033Z,2.08
2018-11-23T08:41:32.363Z,2.10
2018-11-23T08:44:19.712Z,2.07
2018-11-23T08:49:35.368Z,2.12
2018-11-23T08:52:22.716Z,2.17
2018-11-23T08:54:50.960Z,2.14
2018-11-23T08:57:19.199Z,2.13
2018-11-23T09:00:06.499Z,2.16
2018-11-23T09:05:22.227Z,2.20
2018-11-23T09:08:09.549Z,2.22
2018-11-23T09:10:37.763Z,2.25
2018-11-23T09:13:25.148Z,2.29
2018-11-23T09:16:12.475Z,2.32
2018-11-23T09:24:13.972Z,2.41
2018-11-23T09:27:01.287Z,2.45
2018-11-23T09:29:48.643Z,2.43
2018-11-23T09:35:03.419Z,2.50
2018-11-23T09:37:50.720Z,2.51
2018-11-23T09:40:38.056Z,2.57
2018-11-23T09:43:06.432Z,2.58
2018-11-23T09:45:53.777Z,2.59
2018-11-23T09:48:41.109Z,2.62
2018-11-23T09:53:55.994Z,2.66
2018-11-23T09:56:24.213Z,2.71
2018-11-23T09:59:11.581Z,2.75
2018-11-23T10:01:39.822Z,2.75
2018-11-23T10:04:08.039Z,2.77
2018-11-23T10:06:55.388Z,2.77
2018-11-23T10:12:10.799Z,2.79
2018-11-23T10:14:39.028Z,2.81
2018-11-23T10:17:26.410Z,2.79
2018-11-23T10:20:13.777Z,2.79
2018-11-23T10:25:35.489Z,2.84
2018-11-23T10:28:22.785Z,2.77
2018-11-23T10:30:51.044Z,2.76
2018-11-23T10:33:19.257Z,2.82
2018-11-23T10:36:06.586Z,2.85
2018-11-23T10:41:27.774Z,2.90
2018-11-23T10:43:56.005Z,2.91
2018-11-23T10:46:24.235Z,2.90
2018-11-23T10:49:11.549Z,2.94
2018-11-23T10:51:58.903Z,2.92
2018-11-23T10:57:20.592Z,2.98
2018-11-23T10:59:48.824Z,3.00
2018-11-23T11:02:36.149Z,3.01
2018-11-23T11:05:23.856Z,3.03
2018-11-23T11:07:52.104Z,3.04
2018-11-23T11:10:20.355Z,3.05
2018-11-23T11:12:48.600Z,3.07
2018-11-23T11:15:16.986Z,3.10
2018-11-23T11:17:45.345Z,3.13
2018-11-23T11:20:32.676Z,3.16
2018-11-23T11:23:00.916Z,3.14
2018-11-23T11:25:29.169Z,3.17
2018-11-23T11:27:57.387Z,3.18
2018-11-23T11:30:25.617Z,3.14
2018-11-23T11:33:13.000Z,3.18
2018-11-23T11:38:28.719Z,3.23
2018-11-23T11:41:16.057Z,3.20
2018-11-23T11:44:03.379Z,3.18
2018-11-23T11:46:31.630Z,3.19
2018-11-23T11:48:59.835Z,3.21
2018-11-23T11:51:47.195Z,3.20
2018-11-23T11:54:34.547Z,3.21
2018-11-23T11:59:50.181Z,3.24
2018-11-23T12:02:37.503Z,3.27
2018-11-23T12:05:25.896Z,3.29
2018-11-23T12:07:54.161Z,3.31
2018-11-23T12:13:15.907Z,3.34
2018-11-23T12:16:03.208Z,3.30
2018-11-23T12:21:18.650Z,3.32
2018-11-23T12:23:46.905Z,3.32
2018-11-23T12:26:34.232Z,3.37
2018-11-23T12:29:21.597Z,3.33
2018-11-23T12:34:43.142Z,3.31
2018-11-23T12:37:11.602Z,3.34
2018-11-23T12:39:58.948Z,3.35
2018-11-23T12:42:46.290Z,3.42
2018-11-23T12:48:01.330Z,3.41
2018-11-23T12:50:48.653Z,3.38
2018-11-23T12:53:36.011Z,3.49
2018-11-23T13:01:44.160Z,3.43
2018-11-23T13:04:12.442Z,3.39
2018-11-23T13:06:59.746Z,3.46
2018-11-23T13:09:28.008Z,3.46
2018-11-23T13:12:15.331Z,3.45
2018-11-23T13:17:30.770Z,3.43
2018-11-23T13:20:18.090Z,3.42
2018-11-23T13:23:05.410Z,3.35
2018-11-23T13:25:34.099Z,3.40
2018-11-23T13:28:02.645Z,3.43
2018-11-23T13:30:49.975Z,3.38
2018-11-23T13:33:37.318Z,3.42
2018-11-23T13:38:52.709Z,3.48
2018-11-23T13:41:20.956Z,3.38
2018-11-23T13:44:08.317Z,3.42
2018-11-23T13:46:36.589Z,3.41
2018-11-23T13:49:23.925Z,3.39
2018-11-23T13:54:39.054Z,3.40
2018-11-23T13:57:07.296Z,3.42
2018-11-23T13:59:54.600Z,3.43
2018-11-23T14:02:22.867Z,3.48
2018-11-23T14:04:51.230Z,3.44
2018-11-23T14:07:38.561Z,3.44
2018-11-23T14:10:09.773Z,3.46
2018-11-23T14:12:38.027Z,3.45
2018-11-23T14:15:08.736Z,3.49
2018-11-23T14:17:36.995Z,3.46
2018-11-23T14:20:06.210Z,3.43
2018-11-23T14:22:34.456Z,3.48
2018-11-23T14:25:21.823Z,3.47
2018-11-23T14:27:50.602Z,3.48
2018-11-23T14:30:38.594Z,3.44
2018-11-23T14:33:06.860Z,3.49
2018-11-23T14:35:54.164Z,3.49
2018-11-23T14:38:22.434Z,3.49
2018-11-23T14:40:50.704Z,3.52
2018-11-23T14:43:38.027Z,3.51
2018-11-23T14:48:59.601Z,3.51
2018-11-23T14:51:46.893Z,3.54
2018-11-23T14:54:34.257Z,3.55
2018-11-23T14:57:02.495Z,3.59
2018-11-23T14:59:49.814Z,3.57
2018-11-23T15:02:37.156Z,3.53
2018-11-23T15:05:06.170Z,3.56
2018-11-23T15:07:53.460Z,3.55
2018-11-23T15:10:42.351Z,3.56
2018-11-23T15:15:57.977Z,3.61
2018-11-23T15:18:45.339Z,3.61
2018-11-23T15:21:32.670Z,3.61
2018-11-23T15:24:01.061Z,3.56
2018-11-23T15:26:48.234Z,3.56
2018-11-23T15:29:35.597Z,3.59
2018-11-23T15:32:03.835Z,3.58
2018-11-23T15:34:32.082Z,3.58
2018-11-23T15:37:00.311Z,3.57
2018-11-23T15:39:47.650Z,3.57
2018-11-23T15:42:15.903Z,3.59
2018-11-23T15:45:03.245Z,3.62
2018-11-23T15:50:25.484Z,3.66
2018-11-23T15:52:53.862Z,3.68
2018-11-23T15:55:24.340Z,3.65
2018-11-23T15:57:53.567Z,3.64
2018-11-23T16:00:42.226Z,3.66
2018-11-23T16:03:11.725Z,3.62
2018-11-23T16:05:59.176Z,3.62
2018-11-23T16:11:20.597Z,3.64
2018-11-23T16:13:48.836Z,3.65
2018-11-23T16:16:36.159Z,3.68
2018-11-23T16:21:57.696Z,3.70
2018-11-23T16:24:25.885Z,3.68
2018-11-23T16:27:13.228Z,3.70
2018-11-23T16:30:00.565Z,3.73
2018-11-23T16:35:17.104Z,3.80
2018-11-23T16:37:45.483Z,3.79
2018-11-23T16:40:15.163Z,3.79
2018-11-23T16:43:02.530Z,3.79
2018-11-23T16:45:49.886Z,3.75
2018-11-23T16:48:19.012Z,3.76
2018-11-23T16:50:47.232Z,3.77
2018-11-23T16:53:15.463Z,3.74
2018-11-23T16:55:43.741Z,3.78
2018-11-23T16:58:12.958Z,3.78
2018-11-23T17:01:00.299Z,3.80
2018-11-23T17:03:47.620Z,3.80
2018-11-23T17:06:15.865Z,3.81
2018-11-23T17:08:44.081Z,3.81
2018-11-23T17:11:12.319Z,3.82
2018-11-23T17:13:40.523Z,3.83
2018-11-23T17:16:27.861Z,3.81
2018-11-23T17:19:15.264Z,3.82
2018-11-23T17:24:30.022Z,3.82
2018-11-23T17:26:58.275Z,3.83
2018-11-23T17:29:26.549Z,3.82
2018-11-23T17:31:54.770Z,3.80
2018-11-23T17:34:23.026Z,3.79
2018-11-23T17:37:10.335Z,3.79
2018-11-23T17:39:38.758Z,3.82
2018-11-23T17:42:06.984Z,3.79
2018-11-23T17:44:54.364Z,3.82
2018-11-23T17:50:16.910Z,3.83
2018-11-23T17:53:04.256Z,3.84
2018-11-23T17:55:51.606Z,3.82
2018-11-23T17:58:19.887Z,3.82
2018-11-23T18:01:07.217Z,3.84
2018-11-23T18:03:35.483Z,3.84
2018-11-23T18:06:22.814Z,3.86
2018-11-23T18:08:51.085Z,3.87
2018-11-23T18:11:38.381Z,3.90
2018-11-23T18:14:25.867Z,3.91
2018-11-23T18:19:46.780Z,3.94
2018-11-23T18:22:34.104Z,3.91
2018-11-23T18:25:21.475Z,3.95
2018-11-23T18:30:42.665Z,3.94
2018-11-23T18:33:10.856Z,3.97
2018-11-23T18:35:58.191Z,3.98
2018-11-23T18:38:45.533Z,3.99
2018-11-23T18:44:00.519Z,4.02
2018-11-23T18:46:28.750Z,4.04
2018-11-23T18:48:56.973Z,4.02
2018-11-23T18:51:44.323Z,3.99
2018-11-23T18:54:31.619Z,4.02
2018-11-23T18:56:59.895Z,4.02
2018-11-23T18:59:47.212Z,3.98
2018-11-23T19:05:02.235Z,3.99
2018-11-23T19:07:30.482Z,3.99
2018-11-23T19:09:58.782Z,4.03
2018-11-23T19:12:27.010Z,3.95
2018-11-23T19:15:14.324Z,3.97
2018-11-23T19:18:01.709Z,3.98
2018-11-23T19:23:22.536Z,4.01
2018-11-23T19:25:50.776Z,3.99
2018-11-23T19:28:38.132Z,3.99
2018-11-23T19:31:25.453Z,4.02
2018-11-23T19:36:40.508Z,4.04
2018-11-23T19:39:08.958Z,4.03
2018-11-23T19:41:37.170Z,4.03
2018-11-23T19:44:05.409Z,4.02
2018-11-23T19:46:33.616Z,4.05
2018-11-23T19:49:01.850Z,4.07
2018-11-23T19:51:30.066Z,4.06
2018-11-23T19:54:17.393Z,4.05
2018-11-23T19:56:45.600Z,4.04
2018-11-23T19:59:13.843Z,4.03
2018-11-23T20:02:01.157Z,4.06
2018-11-23T20:04:29.478Z,4.05
2018-11-23T20:07:16.798Z,4.00
2018-11-23T20:12:31.720Z,4.03
2018-11-23T20:15:19.043Z,4.00
2018-11-23T20:18:06.636Z,4.02
2018-11-23T20:20:34.891Z,4.04
2018-11-23T20:23:22.205Z,4.05
2018-11-23T20:25:50.485Z,4.05
2018-11-23T20:28:18.694Z,4.07
2018-11-23T20:30:46.942Z,4.07
2018-11-23T20:33:34.226Z,4.03
2018-11-23T20:38:49.581Z,4.09
2018-11-23T20:41:36.909Z,4.07
2018-11-23T20:44:05.958Z,4.08
2018-11-23T20:46:34.356Z,4.06
2018-11-23T20:49:21.678Z,4.08
2018-11-23T20:51:49.945Z,4.06
2018-11-23T20:54:18.153Z,4.08
2018-11-23T20:57:05.516Z,4.07
2018-11-23T20:59:52.841Z,4.07
2018-11-23T21:05:09.605Z,4.08
2018-11-23T21:07:57.124Z,4.08
2018-11-23T21:10:45.105Z,4.09
2018-11-23T21:16:00.185Z,4.07
2018-11-23T21:18:28.415Z,4.07
2018-11-23T21:21:15.727Z,4.06
2018-11-23T21:24:03.076Z,4.06
2018-11-23T21:29:24.717Z,4.05
2018-11-23T21:32:12.214Z,4.02
2018-11-23T21:34:40.479Z,4.04
2018-11-23T21:37:08.752Z,4.02
2018-11-23T21:39:56.053Z,4.00
2018-11-23T21:42:43.410Z,4.01
2018-11-23T21:45:31.115Z,3.98
2018-11-23T21:47:59.362Z,3.94
2018-11-23T21:50:46.716Z,3.90
2018-11-23T21:53:14.954Z,3.82
2018-11-23T21:55:43.186Z,3.85
2018-11-23T21:58:11.410Z,3.82
2018-11-23T22:00:39.654Z,3.77
2018-11-23T22:03:26.969Z,3.74
2018-11-23T22:06:14.332Z,3.69
2018-11-23T22:14:21.997Z,3.57
2018-11-23T22:16:50.272Z,3.52
2018-11-23T22:19:37.571Z,3.50
2018-11-23T22:22:25.030Z,3.49
2018-11-23T22:24:53.271Z,3.46
2018-11-23T22:27:40.601Z,3.45
2018-11-23T22:30:30.040Z,3.41
2018-11-23T22:35:51.813Z,3.34
2018-11-23T22:38:39.114Z,3.32
2018-11-23T22:41:26.487Z,3.25
2018-11-23T22:46:47.861Z,3.23
2018-11-23T22:49:35.171Z,3.23
2018-11-23T22:52:22.540Z,3.18
2018-11-23T22:55:09.837Z,3.17
2018-11-23T23:00:45.212Z,3.07
2018-11-23T23:03:14.121Z,3.07
2018-11-23T23:05:42.741Z,3.06
2018-11-23T23:08:10.626Z,3.05
2018-11-23T23:10:57.947Z,3.09
2018-11-23T23:16:13.420Z,3.03
2018-11-23T23:19:00.745Z,3.04
2018-11-23T23:21:48.074Z,3.07
2018-11-23T23:24:16.345Z,2.96
2018-11-23T23:26:44.559Z,2.99
2018-11-23T23:29:31.913Z,2.99
2018-11-23T23:32:00.145Z,3.01
2018-11-23T23:34:28.397Z,2.95
2018-11-23T23:36:56.598Z,2.93
2018-11-23T23:39:43.964Z,2.95
2018-11-23T23:45:06.764Z,2.93
2018-11-23T23:47:54.074Z,2.97
2018-11-23T23:50:22.525Z,2.94
2018-11-23T23:53:10.415Z,2.96
2018-11-23T23:58:25.359Z,2.90
